This is the latest recevied weather packets stored in our database for station/object K5UTC. If no packets are shown the sender has not sent any weather packets the latest 10 day(s).
| Time | Temp. | Humidity | Pressure | Rain* | Wind** | Luminosity | Snow |
|---|---|---|---|---|---|---|---|
| 1778244445 | 18.33° C | 68% | 1016.5 hPa | 0 mm | - | 118 W/m² | - |
| 1778244142 | 17.22° C | 77% | 1016.7 hPa | 0 mm | - | 105 W/m² | - |
| 1778243840 | 16.11° C | 79% | 1016.7 hPa | 0 mm | - | 96 W/m² | - |
| 1778243538 | 16.11° C | 78% | 1016.7 hPa | 0 mm | - | 87 W/m² | - |
| 1778243233 | 15° C | 81% | 1016.8 hPa | 0 mm | - | 79 W/m² | - |
| 1778242931 | 13.89° C | 90% | 1017 hPa | 0 mm | - | 71 W/m² | - |
| 1778242628 | 13.33° C | 97% | 1016.6 hPa | 0 mm | - | 66 W/m² | - |
| 1778242327 | 12.78° C | 98% | 1016.7 hPa | 0 mm | - | 61 W/m² | - |
| 1778242024 | 12.78° C | 98% | 1016.8 hPa | 0 mm | - | 57 W/m² | - |
| 1778241722 | 12.22° C | 98% | 1016.8 hPa | 0 mm | - | 53 W/m² | - |
| 1778241419 | 11.67° C | 98% | 1016.6 hPa | 0 mm | - | 50 W/m² | - |
| 1778241116 | 11.67° C | 98% | 1016.5 hPa | 0 mm | - | 46 W/m² | - |
| 1778240813 | 10.56° C | 98% | 1016.5 hPa | 0 mm | - | 42 W/m² | - |
| 1778240509 | 10° C | 98% | 1016.4 hPa | 0 mm | - | 39 W/m² | - |
| 1778240206 | 10° C | 98% | 1016.3 hPa | 0 mm | - | 35 W/m² | - |
| 1778239905 | 8.89° C | 98% | 1016.1 hPa | 0 mm | - | 30 W/m² | - |
| 1778239600 | 7.78° C | 98% | 1016 hPa | 0 mm | - | 22 W/m² | - |
| 1778239297 | 7.78° C | 98% | 1015.9 hPa | 0 mm | - | 18 W/m² | - |
| 1778238994 | 7.78° C | 98% | 1015.8 hPa | 0 mm | - | 16 W/m² | - |
| 1778238691 | 7.78° C | 98% | 1015.6 hPa | 0 mm | - | 14 W/m² | - |
| 1778238389 | 8.33° C | 98% | 1015.6 hPa | 0 mm | - | 11 W/m² | - |
| 1778238086 | 7.78° C | 98% | 1015.6 hPa | 0 mm | - | 9 W/m² | - |
| 1778237786 | 7.78° C | 98% | 1015.4 hPa | 0 mm | - | 6 W/m² | - |
| 1778237483 | 7.78° C | 98% | 1015.4 hPa | 0 mm | - | 4 W/m² | - |
| 1778237181 | 7.78° C | 98% | 1015.3 hPa | 0 mm | - | 2 W/m² | - |
* Rain latest hour (hover to see other rain measurements)
** Current wind speed in m/s (hover to see current wind gust speed)